Historyczne dane pomiarowe

Dodano dane terminowe – wersja testowa.

Dane z okresu 1951-2019

Wersja bazy: 1.34 [2019-03-16, lista zmian], aktualizacja planowana na 2019-04-15

Dane meteo z obszaru Polski uzyskane na podstawie danych udostępnionych przez Instytut Meteorologii i Gospodarki Wodnej – Państwowy Instytut Badawczy.

 

Wybierz Datę:    

       

TemperaturaWilgotnośćWiatrCiśnienieOpadyŚniegCzas trwania zjawisk
 Stacja t tx tn tng RH VA  wxwx mslp ppp RRR   cm mm wxwxwxwxwxwxwx
1979-02-15 -7.6 -3.9 -9.3--- 8.0 3.0---- 0.0-- 23---------
1979-02-14 -4.5 -2.5 -5.8--- 7.7 3.0---- 0.2-- 23---------
1979-02-13 -3.7 -1.6 -5.2--- 7.3 1.0---- 2.9-- 21---------
1979-02-12 -3.5 -0.8 -7.6--- 7.7 3.0---- 3.8-- 18---------
1979-02-11 -7.2 -2.2-12.3--- 7.0 1.7---- 0.0-- 19---------
1979-02-10 -4.7 -1.4 -6.2--- 5.0 1.0---- 0.0-- 19---------
1979-02-09 -3.0 0.9 -6.1--- 5.7 1.7---- 0.0-- 19---------
1979-02-08 -1.4 1.9 -4.6--- 7.7 10.7---- 0.1-- 20---------
1979-02-07 -3.4 -1.0 -4.8--- 6.3 2.3---- 0.4-- 21---------
1979-02-06 -3.9 -0.1 -6.4--- 7.3 2.3---- 0.0-- 24---------
1979-02-05 -1.9 0.8 -4.7--- 7.0 1.7---- 0.0-- 25---------
1979-02-04 0.7 2.4 -2.0--- 6.0 3.0---- 0.1-- 25---------
1979-02-03 -0.8 2.2 -3.1--- 6.7 3.0---- 0.0-- 25---------
1979-02-02 2.2 3.6 1.0--- 8.0 3.0---- 1.2-- 30---------
1979-02-01 0.8 2.8 -2.9--- 7.0 3.7---- 0.5-- 30---------
1979-01-31 -1.1 0.7 -3.0--- 8.0 5.0---- 2.9-- 32---------
1979-01-30 -2.0 0.8 -3.8--- 8.0 1.7---- 0.0-- 32---------
1979-01-29 -2.4 -0.6 -3.0--- 8.0 1.0---- 0.1-- 30---------
1979-01-28 -0.2 0.3 -0.8--- 8.0 1.7---- 4.4-- 30---------
1979-01-27 -0.8 0.9 -2.3--- 6.3 2.3---- 8.6-- 18---------
1979-01-26 -4.2 1.6 -9.6--- 5.0 2.3---- 0.3-- 18---------
1979-01-25 -2.4 1.0 -4.8--- 5.0 1.0---- 0.0-- 18---------
1979-01-24 0.9 3.1 -3.0--- 8.0 3.0---- 0.1-- 19---------
1979-01-23 -4.5 -2.7 -5.9--- 8.0 3.0---- 0.9-- 20---------
1979-01-22 -6.3 -4.5-10.1--- 8.0 1.0---- 0.0-- 23---------
1979-01-21 -8.0 -5.7 -9.8--- 8.0 3.0---- 0.2-- 23---------
1979-01-20 -5.2 -4.1 -5.9--- 8.0 1.7---- 0.0-- 23---------
1979-01-19 -4.4 -3.8 -5.1--- 8.0 3.0---- 0.0-- 23---------
1979-01-18 -4.5 -3.6 -6.0--- 8.0 2.3---- 0.0-- 25---------
1979-01-17 -3.1 -2.4 -3.8--- 8.0 1.0---- 0.1-- 25---------
1979-01-16 -1.7 -0.4 -2.6--- 8.0 1.7---- 4.6-- 20---------
1979-01-15 -3.2 -1.6 -5.0--- 8.0 2.3---- 5.3-- 18---------
1979-01-14 -2.7 -2.0 -3.2--- 7.7 3.0---- 0.0-- 18---------
1979-01-13 -1.4 0.1 -2.4--- 7.7 1.0---- 0.6-- 18---------
1979-01-12 -0.9 0.7 -3.5--- 6.0 1.7---- 0.1-- 18---------
1979-01-11 -2.1 0.8 -5.2--- 8.0 1.7---- 0.9-- 18---------
1979-01-10 -0.8 1.6 -4.6--- 5.7 3.0---- 0.0-- 18---------
1979-01-09 0.0 1.4 -1.6--- 8.0 1.0---- 0.3-- 25---------
1979-01-08 -0.6 1.8 -5.1--- 7.3 1.7---- 3.6-- 30---------
1979-01-07-11.3 -4.9-17.4--- 6.0 1.7---- 0.4-- 35---------
1979-01-06-11.4 -9.7-14.0--- 6.7 2.3---- 0.1-- 35---------
1979-01-05 -9.8 -9.0-10.8--- 8.0 3.0---- 0.6-- 35---------
1979-01-04 -9.7 -8.8-10.6--- 7.7 2.3---- 1.4-- 30---------
1979-01-03-10.0 -8.4-12.7--- 6.7 6.7---- 1.1-- 25---------
1979-01-02-10.4 -8.6-18.3--- 7.0 6.7---- 0.8-- 25---------
1979-01-01-18.7-17.1-20.4--- 7.0 3.0---- 0.9-- 25---------
1978-12-31-16.6-13.4-18.9--- 7.3 1.7---- 11.6-- 10---------
1978-12-30-12.1 -3.6-13.7--- 8.0 3.0---- 10.8------------
1978-12-29 2.9 8.7 -3.9--- 8.0 1.7---- 7.9------------
1978-12-28 5.3 8.8 1.8--- 7.7 2.3---- 3.4------------
1978-12-27 5.1 6.2 3.6--- 6.7 1.7---- 0.6------------
1978-12-26 5.1 7.1 3.4--- 6.7 1.7---- 1.7------------
1978-12-25 1.8 4.3 -1.9--- 7.7 3.0---- 1.2------------
1978-12-24 0.0 2.1 -0.9--- 7.3 1.0---- 0.0------------
1978-12-23 -1.8 -0.2 -3.8--- 6.0 2.3---- 0.2------------
1978-12-22 -4.3 -1.9 -6.8--- 6.7 2.3---- 0.0------------
1978-12-21 -2.6 -0.5 -3.5--- 8.0 1.7---- 0.0------------
1978-12-20 -4.0 -0.3 -8.3--- 7.0 3.0---- 0.5------------
1978-12-19 -6.8 -4.7 -9.2--- 6.3 1.0---- 0.0------------
1978-12-18 -5.3 -3.6 -6.5--- 7.0 1.0---- 0.0------------
858.3 ms

 

Źródłem pochodzenia danych jest Instytut Meteorologii i Gospodarki Wodnej – Państwowy Instytut Badawczy. Dane Instytutu Meteorologii i Gospodarki Wodnej – Państwowego Instytutu Badawczego zostały przetworzone.

Dane źródłowe można odnaleźć na stronie https://dane.imgw.pl